createdAt,value
2018-07-03T00:01:04.972Z,2.57
2018-07-03T00:03:34.295Z,1.10
2018-07-03T00:06:02.945Z,1.80
2018-07-03T00:08:32.056Z,1.00
2018-07-03T00:11:01.349Z,2.20
2018-07-03T00:13:30.454Z,0.90
2018-07-03T00:15:59.610Z,2.63
2018-07-03T00:18:28.786Z,2.13
2018-07-03T00:20:57.936Z,3.67
2018-07-03T00:23:27.476Z,4.77
2018-07-03T00:25:56.616Z,1.20
2018-07-03T00:28:25.784Z,1.30
2018-07-03T00:30:54.969Z,1.63
2018-07-03T00:33:24.178Z,1.27
2018-07-03T00:35:53.279Z,3.17
2018-07-03T00:38:22.427Z,1.57
2018-07-03T00:40:51.590Z,1.60
2018-07-03T00:43:21.655Z,2.30
2018-07-03T00:45:51.185Z,1.60
2018-07-03T00:48:20.716Z,2.50
2018-07-03T00:50:49.863Z,1.43
2018-07-03T00:53:19.024Z,2.20
2018-07-03T00:55:48.164Z,1.60
2018-07-03T00:58:17.319Z,2.20
2018-07-03T01:00:46.667Z,1.80
2018-07-03T01:03:15.783Z,2.07
2018-07-03T01:05:44.983Z,2.10
2018-07-03T01:08:14.202Z,1.80
2018-07-03T01:10:43.316Z,1.83
2018-07-03T01:13:12.512Z,3.80
2018-07-03T01:15:43.081Z,2.13
2018-07-03T01:18:12.269Z,1.93
2018-07-03T01:20:41.383Z,2.87
2018-07-03T01:23:10.506Z,2.10
2018-07-03T01:25:39.657Z,2.10
2018-07-03T01:28:08.834Z,2.60
2018-07-03T01:30:37.996Z,2.90
2018-07-03T01:33:07.152Z,3.07
2018-07-03T01:35:36.306Z,3.10
2018-07-03T01:38:05.492Z,3.33
2018-07-03T01:40:35.275Z,4.33
2018-07-03T01:43:04.414Z,2.70
2018-07-03T01:45:33.554Z,2.63
2018-07-03T01:48:02.675Z,3.97
2018-07-03T01:50:31.795Z,3.83
2018-07-03T01:53:01.048Z,2.73
2018-07-03T01:55:30.173Z,2.87
2018-07-03T01:57:59.442Z,7.77
2018-07-03T02:00:28.686Z,7.57
2018-07-03T02:02:57.321Z,4.20
2018-07-03T02:05:26.421Z,3.90
2018-07-03T02:07:56.589Z,4.20
2018-07-03T02:10:26.318Z,6.90
2018-07-03T02:12:55.418Z,6.93
2018-07-03T02:15:24.751Z,3.63
2018-07-03T02:17:54.008Z,4.37
2018-07-03T02:20:23.124Z,4.00
2018-07-03T02:22:52.295Z,7.00
2018-07-03T02:25:21.444Z,4.57
2018-07-03T02:27:50.731Z,4.93
2018-07-03T02:30:19.916Z,5.43
2018-07-03T02:32:49.012Z,6.70
2018-07-03T02:35:18.306Z,5.33
2018-07-03T02:37:47.492Z,6.00
2018-07-03T02:40:17.135Z,6.10
2018-07-03T02:42:46.348Z,8.70
2018-07-03T02:45:15.784Z,5.30
2018-07-03T02:47:45.570Z,5.83
2018-07-03T02:50:14.712Z,12.87
2018-07-03T02:52:43.853Z,4.53
2018-07-03T02:55:13.063Z,7.50
2018-07-03T02:57:42.203Z,6.63
2018-07-03T03:00:11.362Z,6.37
2018-07-03T03:02:40.541Z,8.80
2018-07-03T03:05:10.050Z,6.20
2018-07-03T03:07:39.260Z,5.87
2018-07-03T03:10:08.449Z,5.67
2018-07-03T03:12:37.590Z,7.27
2018-07-03T03:15:07.002Z,6.80
2018-07-03T03:17:36.159Z,5.40
2018-07-03T03:20:05.342Z,16.13
2018-07-03T03:22:34.556Z,7.20
2018-07-03T03:25:03.701Z,4.73
2018-07-03T03:27:32.900Z,4.87
2018-07-03T03:30:02.052Z,6.00
2018-07-03T03:32:31.222Z,7.43
2018-07-03T03:35:00.432Z,8.50
2018-07-03T03:37:29.614Z,8.40
2018-07-03T03:39:58.815Z,9.17
2018-07-03T03:42:27.980Z,7.30
2018-07-03T03:44:57.248Z,12.67
2018-07-03T03:47:26.859Z,10.10
2018-07-03T03:49:56.176Z,6.20
2018-07-03T03:52:25.335Z,7.40
2018-07-03T03:54:54.787Z,8.60
2018-07-03T03:57:23.959Z,12.67
2018-07-03T03:59:53.107Z,11.87
2018-07-03T04:02:22.378Z,11.93
2018-07-03T04:04:51.653Z,11.47
2018-07-03T04:07:20.845Z,11.63
2018-07-03T04:09:50.017Z,13.03
2018-07-03T04:12:19.314Z,14.87
2018-07-03T04:14:48.457Z,10.20
2018-07-03T04:17:17.598Z,8.53
2018-07-03T04:19:46.759Z,13.10
2018-07-03T04:22:15.889Z,11.87
2018-07-03T04:24:45.052Z,9.63
2018-07-03T04:27:14.208Z,11.30
2018-07-03T04:29:43.347Z,11.60
2018-07-03T04:32:12.598Z,53.63
2018-07-03T04:34:41.769Z,13.07
2018-07-03T04:37:10.981Z,18.23
2018-07-03T04:39:40.132Z,23.33
2018-07-03T04:42:09.275Z,23.70
2018-07-03T04:44:38.953Z,24.00
2018-07-03T04:47:08.078Z,35.70
2018-07-03T04:49:39.210Z,30.40
2018-07-03T04:52:08.628Z,27.23
2018-07-03T04:54:37.771Z,42.87
2018-07-03T04:57:06.962Z,38.73
2018-07-03T04:59:35.645Z,23.90
2018-07-03T05:02:04.925Z,57.13
2018-07-03T05:04:34.078Z,33.47
2018-07-03T05:07:03.226Z,36.73
2018-07-03T05:09:32.440Z,28.73
2018-07-03T05:12:01.601Z,25.57
2018-07-03T05:14:31.147Z,23.83
2018-07-03T05:17:00.298Z,33.83
2018-07-03T05:19:34.453Z,29.20
2018-07-03T05:22:04.157Z,22.87
2018-07-03T05:24:35.492Z,26.60
2018-07-03T05:27:08.812Z,23.07
2018-07-03T05:29:38.126Z,21.80
2018-07-03T05:32:29.492Z,18.70
2018-07-03T05:34:58.675Z,17.63
2018-07-03T05:37:27.995Z,22.17
2018-07-03T05:39:57.157Z,18.67
2018-07-03T05:42:26.329Z,18.03
2018-07-03T05:44:55.516Z,15.77
2018-07-03T05:47:24.691Z,17.37
2018-07-03T05:49:53.875Z,13.40
2018-07-03T05:52:23.503Z,16.37
2018-07-03T05:54:52.812Z,14.60
2018-07-03T05:57:21.931Z,15.30
2018-07-03T05:59:55.142Z,12.60
2018-07-03T06:03:03.137Z,8.77
2018-07-03T06:05:34.777Z,13.43
2018-07-03T06:14:26.381Z,10.50
2018-07-03T06:17:10.165Z,7.77
2018-07-03T06:20:03.415Z,6.87
2018-07-03T06:22:48.454Z,7.33
2018-07-03T06:25:38.869Z,8.20
2018-07-03T06:31:48.880Z,10.50
2018-07-03T06:34:53.354Z,11.43
2018-07-03T06:38:05.502Z,12.43
2018-07-03T06:44:07.083Z,12.53
2018-07-03T06:47:00.711Z,10.63
2018-07-03T06:49:31.893Z,11.33
2018-07-03T06:52:12.316Z,11.43
2018-07-03T06:54:42.302Z,8.27
2018-07-03T07:00:53.511Z,12.10
2018-07-03T07:03:23.054Z,10.13
2018-07-03T07:05:52.246Z,10.27
2018-07-03T07:08:21.426Z,7.70
2018-07-03T07:10:50.633Z,11.53
2018-07-03T07:13:21.555Z,7.27
2018-07-03T07:15:51.545Z,6.30
2018-07-03T07:25:03.032Z,7.87
2018-07-03T07:28:14.922Z,7.80
2018-07-03T07:30:59.824Z,4.43
2018-07-03T07:37:14.109Z,6.30
2018-07-03T07:43:12.623Z,6.77
2018-07-03T07:46:24.412Z,8.73
2018-07-03T07:49:01.972Z,5.40
2018-07-03T07:51:33.259Z,6.37
2018-07-03T07:54:09.868Z,4.70
2018-07-03T07:56:39.327Z,4.37
2018-07-03T07:59:08.544Z,29.03
2018-07-03T08:01:37.781Z,6.10
2018-07-03T08:04:11.140Z,6.03
2018-07-03T08:06:42.322Z,4.63
2018-07-03T08:09:11.576Z,5.30
2018-07-03T08:11:55.503Z,4.87
2018-07-03T08:14:47.095Z,2.70
2018-07-03T08:17:19.131Z,5.13
2018-07-03T08:19:48.425Z,3.90
2018-07-03T08:22:19.935Z,2.87
2018-07-03T08:24:49.192Z,5.60
2018-07-03T08:27:18.427Z,1.80
2018-07-03T08:29:47.660Z,2.90
2018-07-03T08:32:17.098Z,4.57
2018-07-03T08:34:47.107Z,1.50
2018-07-03T08:37:16.976Z,3.53
2018-07-03T08:39:46.879Z,2.80
2018-07-03T08:42:16.385Z,2.13
2018-07-03T08:44:46.072Z,3.10
2018-07-03T08:47:15.912Z,5.40
2018-07-03T08:49:45.667Z,6.10
2018-07-03T08:52:16.047Z,1.73
2018-07-03T08:54:46.275Z,1.57
2018-07-03T08:57:16.386Z,2.17
2018-07-03T09:00:31.702Z,1.87
2018-07-03T09:03:10.951Z,1.77
2018-07-03T09:05:40.987Z,3.20
2018-07-03T09:08:10.238Z,2.60
2018-07-03T09:10:40.451Z,2.67
2018-07-03T09:13:09.689Z,3.60
2018-07-03T09:15:39.043Z,2.53
2018-07-03T09:18:14.334Z,1.23
2018-07-03T09:20:46.561Z,2.80
2018-07-03T09:23:25.890Z,2.73
2018-07-03T09:25:55.957Z,1.97
2018-07-03T09:28:27.276Z,1.90
2018-07-03T09:30:58.840Z,2.37
2018-07-03T09:33:28.239Z,3.03
2018-07-03T09:36:00.754Z,1.57
2018-07-03T09:38:30.020Z,2.17
2018-07-03T09:40:59.333Z,3.33
2018-07-03T09:43:28.439Z,1.03
2018-07-03T09:45:57.611Z,3.17
2018-07-03T09:48:26.787Z,1.53
2018-07-03T09:50:56.463Z,5.90
2018-07-03T09:53:33.985Z,1.17
2018-07-03T09:56:03.816Z,2.30
2018-07-03T09:58:33.025Z,0.97
2018-07-03T10:01:06.304Z,1.20
2018-07-03T10:03:35.569Z,1.67
2018-07-03T10:06:04.760Z,2.13
2018-07-03T10:08:33.955Z,1.67
2018-07-03T10:11:03.871Z,2.17
2018-07-03T10:13:33.031Z,4.87
2018-07-03T10:16:02.061Z,0.70
